sensor_id;sensor_type;location;lat;lon;timestamp;temperature;humidity
28171;DHT22;15458;53.346;-1.688;2023-03-23T00:02:28;8.30;99.90
28171;DHT22;15458;53.346;-1.688;2023-03-23T00:04:55;8.20;99.90
28171;DHT22;15458;53.346;-1.688;2023-03-23T00:07:22;8.20;99.90
28171;DHT22;15458;53.346;-1.688;2023-03-23T00:09:49;8.20;99.90
28171;DHT22;15458;53.346;-1.688;2023-03-23T00:12:21;8.20;99.90
28171;DHT22;15458;53.346;-1.688;2023-03-23T00:15:02;8.20;99.90
28171;DHT22;15458;53.346;-1.688;2023-03-23T00:17:29;8.10;99.90
28171;DHT22;15458;53.346;-1.688;2023-03-23T00:19:55;8.10;99.90
28171;DHT22;15458;53.346;-1.688;2023-03-23T00:22:21;8.10;99.90
28171;DHT22;15458;53.346;-1.688;2023-03-23T00:24:50;8.00;99.90
28171;DHT22;15458;53.346;-1.688;2023-03-23T00:27:17;8.00;99.90
28171;DHT22;15458;53.346;-1.688;2023-03-23T00:29:43;8.00;99.90
28171;DHT22;15458;53.346;-1.688;2023-03-23T00:32:10;8.00;99.90
28171;DHT22;15458;53.346;-1.688;2023-03-23T00:34:41;7.90;99.90
28171;DHT22;15458;53.346;-1.688;2023-03-23T00:37:09;7.90;99.90
28171;DHT22;15458;53.346;-1.688;2023-03-23T00:39:35;7.90;99.90
28171;DHT22;15458;53.346;-1.688;2023-03-23T00:42:05;7.90;99.90
28171;DHT22;15458;53.346;-1.688;2023-03-23T00:44:32;7.80;99.90
28171;DHT22;15458;53.346;-1.688;2023-03-23T00:47:00;7.80;99.90
28171;DHT22;15458;53.346;-1.688;2023-03-23T00:49:26;7.80;99.90
28171;DHT22;15458;53.346;-1.688;2023-03-23T00:51:53;7.70;99.90
28171;DHT22;15458;53.346;-1.688;2023-03-23T00:54:20;7.70;99.90
28171;DHT22;15458;53.346;-1.688;2023-03-23T00:56:46;7.70;99.90
28171;DHT22;15458;53.346;-1.688;2023-03-23T00:59:12;7.70;99.90
28171;DHT22;15458;53.346;-1.688;2023-03-23T01:01:38;7.70;99.90
28171;DHT22;15458;53.346;-1.688;2023-03-23T01:04:04;7.60;99.90
28171;DHT22;15458;53.346;-1.688;2023-03-23T01:06:31;7.60;99.90
28171;DHT22;15458;53.346;-1.688;2023-03-23T01:09:00;7.50;99.90
28171;DHT22;15458;53.346;-1.688;2023-03-23T01:11:28;7.50;99.90
28171;DHT22;15458;53.346;-1.688;2023-03-23T01:13:54;7.50;99.90
28171;DHT22;15458;53.346;-1.688;2023-03-23T01:16:21;7.40;99.90
28171;DHT22;15458;53.346;-1.688;2023-03-23T01:18:46;7.40;99.90
28171;DHT22;15458;53.346;-1.688;2023-03-23T01:21:16;7.30;99.90
28171;DHT22;15458;53.346;-1.688;2023-03-23T01:23:42;7.30;99.90
28171;DHT22;15458;53.346;-1.688;2023-03-23T01:26:28;7.30;99.90
28171;DHT22;15458;53.346;-1.688;2023-03-23T01:28:54;7.20;99.90
28171;DHT22;15458;53.346;-1.688;2023-03-23T01:31:23;7.30;99.90
28171;DHT22;15458;53.346;-1.688;2023-03-23T01:33:49;7.20;99.90
28171;DHT22;15458;53.346;-1.688;2023-03-23T01:36:22;7.20;99.90
28171;DHT22;15458;53.346;-1.688;2023-03-23T01:38:49;7.10;99.90
28171;DHT22;15458;53.346;-1.688;2023-03-23T01:41:16;7.10;99.90
28171;DHT22;15458;53.346;-1.688;2023-03-23T01:44:01;7.10;99.90
28171;DHT22;15458;53.346;-1.688;2023-03-23T01:46:32;7.10;99.90
28171;DHT22;15458;53.346;-1.688;2023-03-23T01:49:08;7.00;99.90
28171;DHT22;15458;53.346;-1.688;2023-03-23T01:51:40;7.00;99.90
28171;DHT22;15458;53.346;-1.688;2023-03-23T01:54:11;6.90;99.90
28171;DHT22;15458;53.346;-1.688;2023-03-23T01:56:47;6.90;99.90
28171;DHT22;15458;53.346;-1.688;2023-03-23T01:59:13;6.80;99.90
28171;DHT22;15458;53.346;-1.688;2023-03-23T02:01:39;6.80;99.90
28171;DHT22;15458;53.346;-1.688;2023-03-23T02:04:12;6.80;99.90
28171;DHT22;15458;53.346;-1.688;2023-03-23T02:06:40;6.80;99.90
28171;DHT22;15458;53.346;-1.688;2023-03-23T02:09:05;6.80;99.90
28171;DHT22;15458;53.346;-1.688;2023-03-23T02:11:32;6.80;99.90
28171;DHT22;15458;53.346;-1.688;2023-03-23T02:13:58;6.80;99.90
28171;DHT22;15458;53.346;-1.688;2023-03-23T02:16:34;6.70;99.90
28171;DHT22;15458;53.346;-1.688;2023-03-23T02:33:28;6.60;99.90
28171;DHT22;15458;53.346;-1.688;2023-03-23T02:35:58;6.60;99.90
28171;DHT22;15458;53.346;-1.688;2023-03-23T02:38:33;6.60;99.90
28171;DHT22;15458;53.346;-1.688;2023-03-23T02:41:01;6.60;99.90
28171;DHT22;15458;53.346;-1.688;2023-03-23T02:43:32;6.60;99.90
28171;DHT22;15458;53.346;-1.688;2023-03-23T02:46:00;6.60;99.90
28171;DHT22;15458;53.346;-1.688;2023-03-23T02:48:28;6.50;99.90
28171;DHT22;15458;53.346;-1.688;2023-03-23T02:50:55;6.50;99.90
28171;DHT22;15458;53.346;-1.688;2023-03-23T02:53:23;6.50;99.90
28171;DHT22;15458;53.346;-1.688;2023-03-23T02:55:51;6.40;99.90
28171;DHT22;15458;53.346;-1.688;2023-03-23T02:58:18;6.40;99.90
28171;DHT22;15458;53.346;-1.688;2023-03-23T03:00:45;6.40;99.90
28171;DHT22;15458;53.346;-1.688;2023-03-23T03:03:20;6.40;99.90
28171;DHT22;15458;53.346;-1.688;2023-03-23T03:12:08;6.30;99.90
28171;DHT22;15458;53.346;-1.688;2023-03-23T03:14:44;6.30;99.90
28171;DHT22;15458;53.346;-1.688;2023-03-23T03:17:25;6.30;99.90
28171;DHT22;15458;53.346;-1.688;2023-03-23T03:20:03;6.20;99.90
28171;DHT22;15458;53.346;-1.688;2023-03-23T03:22:36;6.20;99.90
28171;DHT22;15458;53.346;-1.688;2023-03-23T03:25:04;6.20;99.90
28171;DHT22;15458;53.346;-1.688;2023-03-23T03:27:31;6.20;99.90
28171;DHT22;15458;53.346;-1.688;2023-03-23T03:29:59;6.30;99.90
28171;DHT22;15458;53.346;-1.688;2023-03-23T03:32:36;6.30;99.90
28171;DHT22;15458;53.346;-1.688;2023-03-23T03:35:05;6.30;99.90
28171;DHT22;15458;53.346;-1.688;2023-03-23T03:37:38;6.30;99.90
28171;DHT22;15458;53.346;-1.688;2023-03-23T03:40:08;6.30;99.90
28171;DHT22;15458;53.346;-1.688;2023-03-23T03:42:41;6.30;99.90
28171;DHT22;15458;53.346;-1.688;2023-03-23T03:45:16;6.20;99.90
28171;DHT22;15458;53.346;-1.688;2023-03-23T03:47:42;6.30;99.90
28171;DHT22;15458;53.346;-1.688;2023-03-23T03:50:08;6.30;99.90
28171;DHT22;15458;53.346;-1.688;2023-03-23T03:52:35;6.30;99.90
28171;DHT22;15458;53.346;-1.688;2023-03-23T03:55:01;6.30;99.90
28171;DHT22;15458;53.346;-1.688;2023-03-23T03:57:26;6.30;99.90
28171;DHT22;15458;53.346;-1.688;2023-03-23T03:59:52;6.30;99.90
28171;DHT22;15458;53.346;-1.688;2023-03-23T04:02:18;6.30;99.90
28171;DHT22;15458;53.346;-1.688;2023-03-23T04:04:49;6.30;99.90
28171;DHT22;15458;53.346;-1.688;2023-03-23T04:07:15;6.30;99.90
28171;DHT22;15458;53.346;-1.688;2023-03-23T04:09:42;6.30;99.90
28171;DHT22;15458;53.346;-1.688;2023-03-23T04:12:08;6.30;99.90
28171;DHT22;15458;53.346;-1.688;2023-03-23T04:14:34;6.20;99.90
28171;DHT22;15458;53.346;-1.688;2023-03-23T04:17:00;6.30;99.90
28171;DHT22;15458;53.346;-1.688;2023-03-23T04:19:26;6.20;99.90
28171;DHT22;15458;53.346;-1.688;2023-03-23T04:21:54;6.20;99.90
28171;DHT22;15458;53.346;-1.688;2023-03-23T04:24:20;6.20;99.90
28171;DHT22;15458;53.346;-1.688;2023-03-23T04:26:47;6.20;99.90
28171;DHT22;15458;53.346;-1.688;2023-03-23T04:29:12;6.20;99.90
28171;DHT22;15458;53.346;-1.688;2023-03-23T04:31:38;6.10;99.90
28171;DHT22;15458;53.346;-1.688;2023-03-23T04:34:05;6.20;99.90
28171;DHT22;15458;53.346;-1.688;2023-03-23T04:36:30;6.20;99.90
28171;DHT22;15458;53.346;-1.688;2023-03-23T04:38:59;6.10;99.90
28171;DHT22;15458;53.346;-1.688;2023-03-23T04:41:26;6.20;99.90
28171;DHT22;15458;53.346;-1.688;2023-03-23T04:43:52;6.20;99.90
28171;DHT22;15458;53.346;-1.688;2023-03-23T04:46:19;6.20;99.90
28171;DHT22;15458;53.346;-1.688;2023-03-23T04:48:47;6.20;99.90
28171;DHT22;15458;53.346;-1.688;2023-03-23T04:51:13;6.10;99.90
28171;DHT22;15458;53.346;-1.688;2023-03-23T04:53:39;6.10;99.90
28171;DHT22;15458;53.346;-1.688;2023-03-23T04:56:05;6.10;99.90
28171;DHT22;15458;53.346;-1.688;2023-03-23T04:58:30;6.10;99.90
28171;DHT22;15458;53.346;-1.688;2023-03-23T05:01:00;6.10;99.90
28171;DHT22;15458;53.346;-1.688;2023-03-23T05:03:26;6.10;99.90
28171;DHT22;15458;53.346;-1.688;2023-03-23T05:05:52;6.10;99.90
28171;DHT22;15458;53.346;-1.688;2023-03-23T05:08:23;6.10;99.90
28171;DHT22;15458;53.346;-1.688;2023-03-23T05:10:57;6.10;99.90
28171;DHT22;15458;53.346;-1.688;2023-03-23T05:13:24;6.10;99.90
28171;DHT22;15458;53.346;-1.688;2023-03-23T05:15:49;6.10;99.90
28171;DHT22;15458;53.346;-1.688;2023-03-23T05:18:16;6.10;99.90
28171;DHT22;15458;53.346;-1.688;2023-03-23T05:20:42;6.10;99.90
28171;DHT22;15458;53.346;-1.688;2023-03-23T05:23:09;6.10;99.90
28171;DHT22;15458;53.346;-1.688;2023-03-23T05:25:35;6.00;99.90
28171;DHT22;15458;53.346;-1.688;2023-03-23T05:28:06;6.00;99.90
28171;DHT22;15458;53.346;-1.688;2023-03-23T05:30:32;6.00;99.90
28171;DHT22;15458;53.346;-1.688;2023-03-23T05:32:58;6.00;99.90
28171;DHT22;15458;53.346;-1.688;2023-03-23T05:35:25;6.00;99.90
28171;DHT22;15458;53.346;-1.688;2023-03-23T05:37:51;5.90;99.90
28171;DHT22;15458;53.346;-1.688;2023-03-23T05:40:19;5.90;99.90
28171;DHT22;15458;53.346;-1.688;2023-03-23T05:42:45;6.00;99.90
28171;DHT22;15458;53.346;-1.688;2023-03-23T05:45:11;6.00;99.90
28171;DHT22;15458;53.346;-1.688;2023-03-23T05:47:39;6.00;99.90
28171;DHT22;15458;53.346;-1.688;2023-03-23T05:50:06;6.00;99.90
28171;DHT22;15458;53.346;-1.688;2023-03-23T05:52:34;6.00;99.90
28171;DHT22;15458;53.346;-1.688;2023-03-23T05:55:01;6.00;99.90
28171;DHT22;15458;53.346;-1.688;2023-03-23T05:57:29;6.00;99.90
28171;DHT22;15458;53.346;-1.688;2023-03-23T05:59:55;6.00;99.90
28171;DHT22;15458;53.346;-1.688;2023-03-23T06:02:23;6.00;99.90
28171;DHT22;15458;53.346;-1.688;2023-03-23T06:04:50;6.00;99.90
28171;DHT22;15458;53.346;-1.688;2023-03-23T06:07:16;6.00;99.90
28171;DHT22;15458;53.346;-1.688;2023-03-23T06:09:42;6.00;99.90
28171;DHT22;15458;53.346;-1.688;2023-03-23T06:12:08;6.00;99.90
28171;DHT22;15458;53.346;-1.688;2023-03-23T06:14:35;6.00;99.90
28171;DHT22;15458;53.346;-1.688;2023-03-23T06:17:02;5.90;99.90
28171;DHT22;15458;53.346;-1.688;2023-03-23T06:19:27;6.00;99.90
28171;DHT22;15458;53.346;-1.688;2023-03-23T06:21:56;5.90;99.90
28171;DHT22;15458;53.346;-1.688;2023-03-23T06:24:22;5.90;99.90
28171;DHT22;15458;53.346;-1.688;2023-03-23T06:26:48;5.90;99.90
28171;DHT22;15458;53.346;-1.688;2023-03-23T06:29:15;5.90;99.90
28171;DHT22;15458;53.346;-1.688;2023-03-23T06:31:48;6.00;99.90
28171;DHT22;15458;53.346;-1.688;2023-03-23T06:34:14;5.90;99.90
28171;DHT22;15458;53.346;-1.688;2023-03-23T06:36:40;5.90;99.90
28171;DHT22;15458;53.346;-1.688;2023-03-23T06:39:09;5.90;99.90
28171;DHT22;15458;53.346;-1.688;2023-03-23T06:41:35;5.90;99.90
28171;DHT22;15458;53.346;-1.688;2023-03-23T06:44:01;5.90;99.90
28171;DHT22;15458;53.346;-1.688;2023-03-23T06:46:27;5.90;99.90
28171;DHT22;15458;53.346;-1.688;2023-03-23T06:48:53;5.90;99.90
28171;DHT22;15458;53.346;-1.688;2023-03-23T06:51:20;5.90;99.90
28171;DHT22;15458;53.346;-1.688;2023-03-23T06:53:46;5.90;99.90
28171;DHT22;15458;53.346;-1.688;2023-03-23T06:56:12;6.00;99.90
28171;DHT22;15458;53.346;-1.688;2023-03-23T06:58:39;5.90;99.90
28171;DHT22;15458;53.346;-1.688;2023-03-23T07:01:05;6.00;99.90
28171;DHT22;15458;53.346;-1.688;2023-03-23T07:03:31;6.00;99.90
28171;DHT22;15458;53.346;-1.688;2023-03-23T07:05:57;6.00;99.90
28171;DHT22;15458;53.346;-1.688;2023-03-23T07:08:24;6.00;99.90
28171;DHT22;15458;53.346;-1.688;2023-03-23T07:10:53;6.10;99.90
28171;DHT22;15458;53.346;-1.688;2023-03-23T07:13:20;6.10;99.90
28171;DHT22;15458;53.346;-1.688;2023-03-23T07:15:46;6.10;99.90
28171;DHT22;15458;53.346;-1.688;2023-03-23T07:18:11;6.10;99.90
28171;DHT22;15458;53.346;-1.688;2023-03-23T07:20:37;6.20;99.90
28171;DHT22;15458;53.346;-1.688;2023-03-23T07:23:03;6.20;99.90
28171;DHT22;15458;53.346;-1.688;2023-03-23T07:25:31;6.20;99.90
28171;DHT22;15458;53.346;-1.688;2023-03-23T07:27:59;6.30;99.90
28171;DHT22;15458;53.346;-1.688;2023-03-23T07:30:25;6.30;99.90
28171;DHT22;15458;53.346;-1.688;2023-03-23T07:32:53;6.40;99.90
28171;DHT22;15458;53.346;-1.688;2023-03-23T07:35:19;6.40;99.90
28171;DHT22;15458;53.346;-1.688;2023-03-23T07:37:44;6.50;99.90
28171;DHT22;15458;53.346;-1.688;2023-03-23T07:40:11;6.50;99.90
28171;DHT22;15458;53.346;-1.688;2023-03-23T07:42:41;6.60;99.90
28171;DHT22;15458;53.346;-1.688;2023-03-23T07:45:08;6.60;99.90
28171;DHT22;15458;53.346;-1.688;2023-03-23T07:47:34;6.70;99.90
28171;DHT22;15458;53.346;-1.688;2023-03-23T07:49:59;6.70;99.90
28171;DHT22;15458;53.346;-1.688;2023-03-23T07:52:25;6.80;99.90
28171;DHT22;15458;53.346;-1.688;2023-03-23T07:54:51;6.80;99.90
28171;DHT22;15458;53.346;-1.688;2023-03-23T07:57:16;6.90;99.90
28171;DHT22;15458;53.346;-1.688;2023-03-23T07:59:42;6.90;99.90
28171;DHT22;15458;53.346;-1.688;2023-03-23T08:02:08;7.00;99.90
28171;DHT22;15458;53.346;-1.688;2023-03-23T08:04:35;7.00;99.90
28171;DHT22;15458;53.346;-1.688;2023-03-23T08:07:03;7.10;99.90
28171;DHT22;15458;53.346;-1.688;2023-03-23T08:09:32;7.10;99.90
28171;DHT22;15458;53.346;-1.688;2023-03-23T08:11:57;7.20;99.90
28171;DHT22;15458;53.346;-1.688;2023-03-23T08:14:24;7.20;99.90
28171;DHT22;15458;53.346;-1.688;2023-03-23T08:16:53;7.30;99.90
28171;DHT22;15458;53.346;-1.688;2023-03-23T08:19:22;7.40;99.90
28171;DHT22;15458;53.346;-1.688;2023-03-23T08:21:48;7.50;99.90
28171;DHT22;15458;53.346;-1.688;2023-03-23T08:24:14;7.60;99.90
28171;DHT22;15458;53.346;-1.688;2023-03-23T08:26:40;7.60;99.90
28171;DHT22;15458;53.346;-1.688;2023-03-23T08:29:07;7.70;99.90
28171;DHT22;15458;53.346;-1.688;2023-03-23T08:31:33;7.70;99.90
28171;DHT22;15458;53.346;-1.688;2023-03-23T08:34:04;7.70;99.90
28171;DHT22;15458;53.346;-1.688;2023-03-23T08:36:34;7.80;99.90
28171;DHT22;15458;53.346;-1.688;2023-03-23T08:39:00;7.80;99.90
28171;DHT22;15458;53.346;-1.688;2023-03-23T08:41:26;7.80;99.90
28171;DHT22;15458;53.346;-1.688;2023-03-23T08:43:54;7.80;99.90
28171;DHT22;15458;53.346;-1.688;2023-03-23T08:46:19;7.90;99.90
28171;DHT22;15458;53.346;-1.688;2023-03-23T08:48:45;7.90;99.90
28171;DHT22;15458;53.346;-1.688;2023-03-23T08:51:12;8.00;99.90
28171;DHT22;15458;53.346;-1.688;2023-03-23T08:53:40;8.10;99.90
28171;DHT22;15458;53.346;-1.688;2023-03-23T08:56:09;8.20;99.90
28171;DHT22;15458;53.346;-1.688;2023-03-23T08:58:36;8.30;99.90
28171;DHT22;15458;53.346;-1.688;2023-03-23T09:01:03;8.50;99.90
28171;DHT22;15458;53.346;-1.688;2023-03-23T09:03:33;8.60;99.90
28171;DHT22;15458;53.346;-1.688;2023-03-23T09:06:05;8.70;99.90
28171;DHT22;15458;53.346;-1.688;2023-03-23T09:08:33;8.90;99.90
28171;DHT22;15458;53.346;-1.688;2023-03-23T09:11:06;8.90;99.90
28171;DHT22;15458;53.346;-1.688;2023-03-23T09:13:33;9.00;99.90
28171;DHT22;15458;53.346;-1.688;2023-03-23T09:15:59;9.10;99.90
28171;DHT22;15458;53.346;-1.688;2023-03-23T09:18:28;9.10;99.90
28171;DHT22;15458;53.346;-1.688;2023-03-23T09:20:54;9.20;99.90
28171;DHT22;15458;53.346;-1.688;2023-03-23T09:23:20;9.30;99.90
28171;DHT22;15458;53.346;-1.688;2023-03-23T09:25:46;9.30;99.90
28171;DHT22;15458;53.346;-1.688;2023-03-23T09:28:12;9.40;99.90
28171;DHT22;15458;53.346;-1.688;2023-03-23T09:30:39;9.40;99.90
28171;DHT22;15458;53.346;-1.688;2023-03-23T09:33:07;9.40;99.90
28171;DHT22;15458;53.346;-1.688;2023-03-23T09:35:39;9.30;99.90
28171;DHT22;15458;53.346;-1.688;2023-03-23T09:38:07;9.40;99.90
28171;DHT22;15458;53.346;-1.688;2023-03-23T09:40:45;9.40;99.90
28171;DHT22;15458;53.346;-1.688;2023-03-23T09:43:43;9.40;99.90
28171;DHT22;15458;53.346;-1.688;2023-03-23T09:49:01;9.40;99.90
28171;DHT22;15458;53.346;-1.688;2023-03-23T09:51:51;9.40;99.90
28171;DHT22;15458;53.346;-1.688;2023-03-23T09:54:33;9.40;99.90
28171;DHT22;15458;53.346;-1.688;2023-03-23T09:57:01;9.40;99.90
28171;DHT22;15458;53.346;-1.688;2023-03-23T09:59:40;9.40;99.90
28171;DHT22;15458;53.346;-1.688;2023-03-23T10:02:15;9.40;99.90
28171;DHT22;15458;53.346;-1.688;2023-03-23T10:04:48;9.40;99.90
28171;DHT22;15458;53.346;-1.688;2023-03-23T10:07:17;9.50;99.90
28171;DHT22;15458;53.346;-1.688;2023-03-23T10:09:45;9.50;99.90
28171;DHT22;15458;53.346;-1.688;2023-03-23T10:12:32;9.50;99.90
28171;DHT22;15458;53.346;-1.688;2023-03-23T10:15:14;9.60;99.90
28171;DHT22;15458;53.346;-1.688;2023-03-23T10:17:59;9.70;99.90
28171;DHT22;15458;53.346;-1.688;2023-03-23T10:25:58;10.00;99.90
28171;DHT22;15458;53.346;-1.688;2023-03-23T10:28:50;10.00;99.90
28171;DHT22;15458;53.346;-1.688;2023-03-23T10:31:34;10.00;99.90
28171;DHT22;15458;53.346;-1.688;2023-03-23T10:34:32;10.00;99.90
28171;DHT22;15458;53.346;-1.688;2023-03-23T10:37:11;10.20;99.90
28171;DHT22;15458;53.346;-1.688;2023-03-23T10:39:59;10.40;99.90
28171;DHT22;15458;53.346;-1.688;2023-03-23T10:42:31;10.70;99.90
28171;DHT22;15458;53.346;-1.688;2023-03-23T10:44:59;11.00;99.90
28171;DHT22;15458;53.346;-1.688;2023-03-23T10:47:26;11.20;99.90
28171;DHT22;15458;53.346;-1.688;2023-03-23T10:50:02;11.30;99.90
28171;DHT22;15458;53.346;-1.688;2023-03-23T10:52:33;11.40;99.90
28171;DHT22;15458;53.346;-1.688;2023-03-23T10:55:18;11.50;99.90
28171;DHT22;15458;53.346;-1.688;2023-03-23T10:58:00;11.50;99.90
28171;DHT22;15458;53.346;-1.688;2023-03-23T11:00:27;11.50;99.90
28171;DHT22;15458;53.346;-1.688;2023-03-23T11:03:05;11.50;99.90
28171;DHT22;15458;53.346;-1.688;2023-03-23T11:06:00;11.50;99.90
28171;DHT22;15458;53.346;-1.688;2023-03-23T11:08:38;11.60;99.90
28171;DHT22;15458;53.346;-1.688;2023-03-23T11:11:19;11.70;99.90
28171;DHT22;15458;53.346;-1.688;2023-03-23T11:13:48;11.70;99.90
28171;DHT22;15458;53.346;-1.688;2023-03-23T11:16:29;11.60;99.90
28171;DHT22;15458;53.346;-1.688;2023-03-23T11:19:00;11.50;99.90
28171;DHT22;15458;53.346;-1.688;2023-03-23T11:21:38;11.40;99.90
28171;DHT22;15458;53.346;-1.688;2023-03-23T11:24:05;11.20;99.90
28171;DHT22;15458;53.346;-1.688;2023-03-23T11:26:34;11.00;99.90
28171;DHT22;15458;53.346;-1.688;2023-03-23T11:29:23;10.90;99.90
28171;DHT22;15458;53.346;-1.688;2023-03-23T11:32:11;10.70;99.90
28171;DHT22;15458;53.346;-1.688;2023-03-23T11:34:46;10.40;99.90
28171;DHT22;15458;53.346;-1.688;2023-03-23T11:37:29;10.20;99.90
28171;DHT22;15458;53.346;-1.688;2023-03-23T11:40:01;9.90;99.90
28171;DHT22;15458;53.346;-1.688;2023-03-23T11:43:07;9.80;99.90
28171;DHT22;15458;53.346;-1.688;2023-03-23T11:45:35;9.80;99.90
28171;DHT22;15458;53.346;-1.688;2023-03-23T11:48:12;10.10;99.90
28171;DHT22;15458;53.346;-1.688;2023-03-23T11:53:37;10.90;99.90
28171;DHT22;15458;53.346;-1.688;2023-03-23T11:56:29;11.50;99.90
28171;DHT22;15458;53.346;-1.688;2023-03-23T11:58:57;12.10;99.90
28171;DHT22;15458;53.346;-1.688;2023-03-23T12:07:14;13.60;99.90
28171;DHT22;15458;53.346;-1.688;2023-03-23T12:10:46;13.80;99.90
28171;DHT22;15458;53.346;-1.688;2023-03-23T12:15:34;13.80;99.90
28171;DHT22;15458;53.346;-1.688;2023-03-23T12:20:48;13.60;99.90
28171;DHT22;15458;53.346;-1.688;2023-03-23T12:23:24;13.20;99.90
28171;DHT22;15458;53.346;-1.688;2023-03-23T12:31:35;12.10;99.90
28171;DHT22;15458;53.346;-1.688;2023-03-23T12:48:12;10.50;99.90
28171;DHT22;15458;53.346;-1.688;2023-03-23T12:50:44;10.60;99.90
28171;DHT22;15458;53.346;-1.688;2023-03-23T12:53:28;10.90;99.90
28171;DHT22;15458;53.346;-1.688;2023-03-23T12:59:25;12.10;99.90
28171;DHT22;15458;53.346;-1.688;2023-03-23T13:01:46;12.40;99.90
28171;DHT22;15458;53.346;-1.688;2023-03-23T13:04:30;12.60;99.90
28171;DHT22;15458;53.346;-1.688;2023-03-23T13:07:02;12.80;99.90
28171;DHT22;15458;53.346;-1.688;2023-03-23T13:12:21;12.80;99.90
28171;DHT22;15458;53.346;-1.688;2023-03-23T13:14:59;12.70;99.90
28171;DHT22;15458;53.346;-1.688;2023-03-23T13:17:38;12.80;99.90
28171;DHT22;15458;53.346;-1.688;2023-03-23T13:26:12;13.80;99.90
28171;DHT22;15458;53.346;-1.688;2023-03-23T13:31:26;13.80;99.90
28171;DHT22;15458;53.346;-1.688;2023-03-23T13:34:04;13.70;99.90
28171;DHT22;15458;53.346;-1.688;2023-03-23T13:36:33;13.60;99.90
28171;DHT22;15458;53.346;-1.688;2023-03-23T13:39:03;13.40;99.50
28171;DHT22;15458;53.346;-1.688;2023-03-23T13:41:30;13.20;98.90
28171;DHT22;15458;53.346;-1.688;2023-03-23T13:44:20;13.00;98.90
28171;DHT22;15458;53.346;-1.688;2023-03-23T13:47:16;12.80;99.60
28171;DHT22;15458;53.346;-1.688;2023-03-23T13:49:57;12.60;99.90
28171;DHT22;15458;53.346;-1.688;2023-03-23T14:05:41;11.90;99.90
28171;DHT22;15458;53.346;-1.688;2023-03-23T14:10:49;11.40;99.90
28171;DHT22;15458;53.346;-1.688;2023-03-23T14:13:44;11.20;99.90
28171;DHT22;15458;53.346;-1.688;2023-03-23T14:18:59;10.90;99.90
28171;DHT22;15458;53.346;-1.688;2023-03-23T14:21:33;11.00;99.90
28171;DHT22;15458;53.346;-1.688;2023-03-23T14:24:01;11.10;99.90
28171;DHT22;15458;53.346;-1.688;2023-03-23T14:26:28;11.50;99.90
28171;DHT22;15458;53.346;-1.688;2023-03-23T14:28:53;11.90;99.90
28171;DHT22;15458;53.346;-1.688;2023-03-23T14:31:25;12.20;99.90
28171;DHT22;15458;53.346;-1.688;2023-03-23T14:33:53;12.70;99.90
28171;DHT22;15458;53.346;-1.688;2023-03-23T14:36:24;13.30;99.90
28171;DHT22;15458;53.346;-1.688;2023-03-23T14:41:39;14.50;99.90
28171;DHT22;15458;53.346;-1.688;2023-03-23T14:44:08;14.90;99.90
28171;DHT22;15458;53.346;-1.688;2023-03-23T14:46:35;15.30;99.90
28171;DHT22;15458;53.346;-1.688;2023-03-23T14:49:04;15.50;99.90
28171;DHT22;15458;53.346;-1.688;2023-03-23T14:51:30;15.50;99.90
28171;DHT22;15458;53.346;-1.688;2023-03-23T14:53:59;15.40;99.90
28171;DHT22;15458;53.346;-1.688;2023-03-23T14:56:33;15.40;99.90
28171;DHT22;15458;53.346;-1.688;2023-03-23T14:59:04;15.20;99.90
28171;DHT22;15458;53.346;-1.688;2023-03-23T15:01:32;14.90;99.90
28171;DHT22;15458;53.346;-1.688;2023-03-23T15:06:30;14.20;97.50
28171;DHT22;15458;53.346;-1.688;2023-03-23T15:08:59;13.90;96.40
28171;DHT22;15458;53.346;-1.688;2023-03-23T15:11:34;13.50;95.80
28171;DHT22;15458;53.346;-1.688;2023-03-23T15:14:14;13.10;96.90
28171;DHT22;15458;53.346;-1.688;2023-03-23T15:16:49;12.70;98.70
28171;DHT22;15458;53.346;-1.688;2023-03-23T15:19:42;12.30;99.90
28171;DHT22;15458;53.346;-1.688;2023-03-23T15:22:29;12.00;99.90
28171;DHT22;15458;53.346;-1.688;2023-03-23T15:27:56;11.50;99.90
28171;DHT22;15458;53.346;-1.688;2023-03-23T15:32:49;11.50;99.90
28171;DHT22;15458;53.346;-1.688;2023-03-23T15:35:21;11.80;99.90
28171;DHT22;15458;53.346;-1.688;2023-03-23T15:38:21;12.00;99.90
28171;DHT22;15458;53.346;-1.688;2023-03-23T15:40:50;12.30;99.90
28171;DHT22;15458;53.346;-1.688;2023-03-23T15:43:50;12.50;99.90
28171;DHT22;15458;53.346;-1.688;2023-03-23T15:46:21;12.50;99.90
28171;DHT22;15458;53.346;-1.688;2023-03-23T15:51:19;12.50;99.90
28171;DHT22;15458;53.346;-1.688;2023-03-23T15:53:45;12.60;99.90
28171;DHT22;15458;53.346;-1.688;2023-03-23T15:56:12;12.60;99.90
28171;DHT22;15458;53.346;-1.688;2023-03-23T15:58:39;12.60;99.90
28171;DHT22;15458;53.346;-1.688;2023-03-23T16:01:11;12.60;99.90
28171;DHT22;15458;53.346;-1.688;2023-03-23T16:03:44;12.60;99.90
28171;DHT22;15458;53.346;-1.688;2023-03-23T16:06:12;12.50;99.90
28171;DHT22;15458;53.346;-1.688;2023-03-23T16:08:38;12.50;99.90
28171;DHT22;15458;53.346;-1.688;2023-03-23T16:11:13;12.50;99.90
28171;DHT22;15458;53.346;-1.688;2023-03-23T16:13:39;12.30;99.90
28171;DHT22;15458;53.346;-1.688;2023-03-23T16:16:09;12.20;99.90
28171;DHT22;15458;53.346;-1.688;2023-03-23T16:18:37;12.10;99.90
28171;DHT22;15458;53.346;-1.688;2023-03-23T16:21:03;12.10;99.90
28171;DHT22;15458;53.346;-1.688;2023-03-23T16:23:28;12.00;99.90
28171;DHT22;15458;53.346;-1.688;2023-03-23T16:25:54;12.00;99.90
28171;DHT22;15458;53.346;-1.688;2023-03-23T16:28:20;11.90;99.90
28171;DHT22;15458;53.346;-1.688;2023-03-23T16:30:46;11.90;99.90
28171;DHT22;15458;53.346;-1.688;2023-03-23T16:33:12;11.90;99.90
28171;DHT22;15458;53.346;-1.688;2023-03-23T16:35:38;11.90;99.90
28171;DHT22;15458;53.346;-1.688;2023-03-23T16:38:04;11.80;99.90
28171;DHT22;15458;53.346;-1.688;2023-03-23T16:40:30;11.80;99.90
28171;DHT22;15458;53.346;-1.688;2023-03-23T16:42:56;11.70;99.90
28171;DHT22;15458;53.346;-1.688;2023-03-23T16:45:22;11.70;99.90
28171;DHT22;15458;53.346;-1.688;2023-03-23T16:47:49;11.60;99.90
28171;DHT22;15458;53.346;-1.688;2023-03-23T16:50:16;11.60;99.90
28171;DHT22;15458;53.346;-1.688;2023-03-23T16:52:44;11.50;99.90
28171;DHT22;15458;53.346;-1.688;2023-03-23T16:55:13;11.50;99.90
28171;DHT22;15458;53.346;-1.688;2023-03-23T16:57:39;11.40;99.90
28171;DHT22;15458;53.346;-1.688;2023-03-23T17:00:07;11.40;99.90
28171;DHT22;15458;53.346;-1.688;2023-03-23T17:02:34;11.30;99.90
28171;DHT22;15458;53.346;-1.688;2023-03-23T17:05:00;11.30;99.90
28171;DHT22;15458;53.346;-1.688;2023-03-23T17:07:29;11.30;99.90
28171;DHT22;15458;53.346;-1.688;2023-03-23T17:09:55;11.20;99.90
28171;DHT22;15458;53.346;-1.688;2023-03-23T17:12:21;11.20;99.90
28171;DHT22;15458;53.346;-1.688;2023-03-23T17:14:46;11.20;99.90
28171;DHT22;15458;53.346;-1.688;2023-03-23T17:17:12;11.10;99.90
28171;DHT22;15458;53.346;-1.688;2023-03-23T17:19:38;11.10;99.90
28171;DHT22;15458;53.346;-1.688;2023-03-23T17:22:04;11.10;99.90
28171;DHT22;15458;53.346;-1.688;2023-03-23T17:24:30;11.00;99.90
28171;DHT22;15458;53.346;-1.688;2023-03-23T17:26:58;11.00;99.90
28171;DHT22;15458;53.346;-1.688;2023-03-23T17:29:23;11.00;99.90
28171;DHT22;15458;53.346;-1.688;2023-03-23T17:31:49;11.00;99.90
28171;DHT22;15458;53.346;-1.688;2023-03-23T17:34:16;10.90;99.90